Time;durP1;ratioP1;P1;durP2;ratioP2;P2;SDS_P1;SDS_P2;PMS_P1;PMS_P2;Temp;Humidity;BMP_temperature;BMP_pressure;BME280_temperature;BME280_humidity;BME280_pressure;Samples;Min_cycle;Max_cycle;Signal;HPM_P1;HPM_P2
2021/10/31 00:01:06;;;;;;;18.90;6.30;;;;;;;10.32;56.56;100029.88;113159;1192;22455;-58
2021/10/31 00:03:34;;;;;;;18.10;6.20;;;;;;;10.26;56.70;100037.84;112999;1199;24279;-59
2021/10/31 00:06:03;;;;;;;18.60;7.10;;;;;;;10.19;56.81;100041.52;112971;1199;22439;-59
2021/10/31 00:08:32;;;;;;;18.20;6.90;;;;;;;10.10;56.90;100037.66;113237;1199;22445;-59
2021/10/31 00:11:01;;;;;;;19.60;6.50;;;;;;;10.02;56.95;100039.30;112741;1192;22441;-59
2021/10/31 00:13:29;;;;;;;15.20;5.70;;;;;;;9.92;57.06;100041.41;112748;1199;25083;-58
2021/10/31 00:15:58;;;;;;;17.70;5.90;;;;;;;9.83;56.97;100040.30;112679;1199;25250;-57
2021/10/31 00:18:27;;;;;;;17.20;5.90;;;;;;;9.74;57.06;100037.58;112681;1193;22498;-60
2021/10/31 00:20:56;;;;;;;17.80;6.00;;;;;;;9.68;57.21;100042.79;112686;1199;25131;-59
2021/10/31 00:23:24;;;;;;;14.20;4.80;;;;;;;9.62;57.18;100050.23;112736;1192;25057;-58
2021/10/31 00:25:53;;;;;;;18.60;5.50;;;;;;;9.59;57.33;100058.38;112685;1192;24054;-58
2021/10/31 00:28:22;;;;;;;13.40;4.40;;;;;;;9.57;57.39;100062.08;112886;1195;22455;-58
2021/10/31 00:30:50;;;;;;;15.40;5.60;;;;;;;9.55;57.56;100064.23;112851;1192;24162;-57
2021/10/31 00:33:18;;;;;;;14.30;5.90;;;;;;;9.54;57.57;100055.38;112676;1199;22777;-57
2021/10/31 00:35:46;;;;;;;15.10;4.80;;;;;;;9.52;57.65;100051.80;112758;1199;25238;-58
2021/10/31 00:38:15;;;;;;;18.70;6.30;;;;;;;9.50;57.79;100052.13;112771;1199;22445;-58
2021/10/31 00:40:45;;;;;;;19.10;6.50;;;;;;;9.50;57.79;100047.95;112658;1192;22490;-58
2021/10/31 00:43:13;;;;;;;15.90;5.30;;;;;;;9.49;57.97;100052.23;112640;1198;25111;-55
2021/10/31 00:45:43;;;;;;;18.50;5.40;;;;;;;9.47;57.97;100053.33;112719;1199;22461;-60
2021/10/31 00:48:12;;;;;;;17.60;5.70;;;;;;;9.45;57.86;100054.59;112786;1199;25102;-60
2021/10/31 00:50:40;;;;;;;17.20;5.60;;;;;;;9.43;58.07;100048.63;112758;1199;24589;-57
2021/10/31 00:53:09;;;;;;;18.90;5.40;;;;;;;9.41;58.26;100040.23;112861;1199;22514;-59
2021/10/31 00:55:40;;;;;;;16.20;6.10;;;;;;;9.37;58.23;100039.59;112649;1192;22420;-58
2021/10/31 00:58:10;;;;;;;19.60;6.20;;;;;;;9.35;58.16;100045.06;112656;1198;25216;-59
2021/10/31 01:00:39;;;;;;;13.50;5.10;;;;;;;9.31;58.27;100053.05;112926;1199;25126;-56
2021/10/31 01:03:08;;;;;;;19.30;6.00;;;;;;;9.29;58.28;100058.16;112661;1192;25126;-58
2021/10/31 01:05:42;;;;;;;16.10;5.70;;;;;;;9.26;58.33;100056.64;112753;1199;25116;-58
2021/10/31 01:08:37;;;;;;;16.90;6.10;;;;;;;9.24;58.57;100060.58;112833;1199;22434;-57
2021/10/31 01:11:28;;;;;;;14.30;5.40;;;;;;;9.21;58.62;100061.23;112834;1199;22434;-57
2021/10/31 01:14:14;;;;;;;16.60;5.70;;;;;;;9.18;58.77;100059.23;112763;1193;24053;-58
2021/10/31 01:16:54;;;;;;;14.20;5.20;;;;;;;9.16;58.93;100056.52;112761;1199;25131;-58
2021/10/31 01:19:39;;;;;;;;;;;;;;;9.15;59.11;100048.23;112829;1199;24307;-57
2021/10/31 01:22:16;;;;;;;12.00;4.50;;;;;;;9.13;59.24;100040.45;112731;1199;25186;-56
2021/10/31 01:24:58;;;;;;;16.30;5.60;;;;;;;9.12;59.19;100038.44;112749;1192;23004;-58
2021/10/31 01:27:41;;;;;;;16.10;5.20;;;;;;;9.11;59.34;100051.69;113006;1199;22584;-58
2021/10/31 01:30:17;;;;;;;16.50;5.80;;;;;;;9.10;59.45;100058.82;112869;1193;24064;-58
2021/10/31 01:33:00;;;;;;;18.50;5.80;;;;;;;9.09;59.62;100055.66;112847;1199;22429;-58
2021/10/31 01:35:42;;;;;;;16.70;5.60;;;;;;;9.09;59.54;100058.31;112724;1199;25728;-58
2021/10/31 01:38:18;;;;;;;18.20;7.20;;;;;;;9.08;59.49;100059.08;112748;1199;24034;-58
2021/10/31 01:40:53;;;;;;;17.00;5.80;;;;;;;9.07;59.66;100067.80;112726;1193;22422;-59
2021/10/31 01:43:30;;;;;;;21.50;7.10;;;;;;;9.05;59.72;100075.36;112980;1199;22458;-57
2021/10/31 01:46:10;;;;;;;19.70;7.60;;;;;;;9.04;59.64;100075.25;112742;1192;22676;-59
2021/10/31 01:48:48;;;;;;;19.20;6.80;;;;;;;9.04;59.68;100068.20;112664;1192;25266;-57
2021/10/31 01:51:20;;;;;;;14.90;6.00;;;;;;;9.02;59.75;100072.33;112637;1199;25534;-59
2021/10/31 01:53:54;;;;;;;16.70;6.00;;;;;;;9.01;59.83;100066.11;112803;1199;22578;-59
2021/10/31 01:56:24;;;;;;;15.20;5.70;;;;;;;8.99;59.91;100066.21;113154;1192;22451;-59
2021/10/31 01:58:59;;;;;;;21.00;7.80;;;;;;;8.96;59.91;100067.77;112744;1193;22422;-60
2021/10/31 02:01:30;;;;;;;15.40;5.30;;;;;;;8.94;59.87;100062.67;112866;1192;22442;-61
2021/10/31 02:04:04;;;;;;;15.30;6.30;;;;;;;8.93;60.00;100063.92;112816;1199;22422;-58
2021/10/31 02:06:34;;;;;;;16.90;7.00;;;;;;;8.92;60.10;100064.14;112915;1199;22495;-58
2021/10/31 02:09:03;;;;;;;15.90;6.70;;;;;;;8.90;60.21;100055.83;112760;1199;25145;-59
2021/10/31 02:11:35;;;;;;;17.60;7.20;;;;;;;8.87;60.27;100061.29;112790;1199;22787;-59
2021/10/31 02:14:06;;;;;;;19.20;7.90;;;;;;;8.83;60.41;100055.34;112772;1192;24320;-58
2021/10/31 02:16:36;;;;;;;19.80;7.20;;;;;;;8.80;60.47;100059.62;113112;1192;24023;-57
2021/10/31 02:19:06;;;;;;;19.70;8.10;;;;;;;8.79;60.49;100068.60;113284;1193;24176;-58
2021/10/31 02:21:37;;;;;;;20.50;8.10;;;;;;;8.77;60.55;100067.34;112855;1199;22441;-59
2021/10/31 02:24:09;;;;;;;20.20;8.20;;;;;;;8.75;60.61;100068.86;112886;1192;22432;-56
2021/10/31 02:26:38;;;;;;;23.10;9.40;;;;;;;8.72;60.64;100067.16;112904;1194;22448;-58
2021/10/31 02:29:07;;;;;;;20.40;8.30;;;;;;;8.69;60.64;100069.23;112804;1199;25136;-57
2021/10/31 02:31:37;;;;;;;21.00;7.20;;;;;;;8.67;60.81;100072.15;112820;1199;26760;-55
2021/10/31 02:34:06;;;;;;;19.30;7.70;;;;;;;8.63;60.98;100070.09;112910;1199;25114;-58
2021/10/31 02:36:35;;;;;;;22.80;8.50;;;;;;;8.60;60.95;100067.33;112778;1199;22440;-56
2021/10/31 02:39:04;;;;;;;19.30;7.70;;;;;;;8.56;61.11;100071.14;112942;1199;26304;-59
2021/10/31 02:41:33;;;;;;;20.30;8.30;;;;;;;8.52;61.16;100068.21;112933;1194;22767;-57
2021/10/31 02:44:02;;;;;;;18.30;7.70;;;;;;;8.49;61.32;100070.82;112833;1199;22450;-58
2021/10/31 02:46:34;;;;;;;21.70;8.40;;;;;;;8.46;61.42;100074.88;112819;1199;25209;-59
2021/10/31 02:49:04;;;;;;;22.80;8.20;;;;;;;8.43;61.49;100074.95;112704;1199;25061;-59
2021/10/31 02:51:43;;;;;;;18.60;6.90;;;;;;;8.40;61.70;100078.59;112823;1199;22435;-58
2021/10/31 02:54:21;;;;;;;19.60;7.70;;;;;;;8.38;61.60;100080.09;112715;1193;25470;-57
2021/10/31 02:57:00;;;;;;;20.30;7.00;;;;;;;8.38;61.72;100071.61;113081;1199;22698;-57
2021/10/31 02:59:40;;;;;;;22.00;8.40;;;;;;;8.37;61.92;100069.75;113020;1199;25084;-58
2021/10/31 03:02:09;;;;;;;19.10;7.50;;;;;;;8.35;62.02;100068.89;112785;1199;24076;-58
2021/10/31 03:04:38;;;;;;;22.20;7.30;;;;;;;8.33;62.24;100074.52;112843;1199;25180;-58
2021/10/31 03:07:08;;;;;;;17.90;7.60;;;;;;;8.34;62.27;100073.31;112838;1199;25353;-58
2021/10/31 03:09:36;;;;;;;20.80;8.50;;;;;;;8.34;62.26;100082.42;112816;1199;25126;-56
2021/10/31 03:12:07;;;;;;;19.50;7.60;;;;;;;8.33;62.36;100104.40;112986;1199;23733;-58
2021/10/31 03:14:36;;;;;;;19.10;7.90;;;;;;;8.32;62.36;100107.25;112942;1199;24802;-59
2021/10/31 03:17:06;;;;;;;18.80;7.70;;;;;;;8.31;62.43;100103.24;113038;1199;22432;-58
2021/10/31 03:19:34;;;;;;;;;;;;;;;8.31;62.49;100103.48;113292;1199;22375;-59
2021/10/31 03:22:02;;;;;;;20.50;8.00;;;;;;;8.29;62.72;100099.59;113159;1199;24109;-59
2021/10/31 03:24:31;;;;;;;18.40;7.00;;;;;;;8.29;62.95;100095.70;113366;1193;24030;-60
2021/10/31 03:27:00;;;;;;;17.00;6.80;;;;;;;8.31;63.02;100103.09;113291;1199;24091;-58
2021/10/31 03:29:28;;;;;;;21.40;7.80;;;;;;;8.34;63.10;100107.25;113236;1192;22438;-58
2021/10/31 03:31:56;;;;;;;21.00;7.90;;;;;;;8.37;63.19;100111.88;113189;1199;24086;-61
2021/10/31 03:34:24;;;;;;;20.80;7.20;;;;;;;8.40;63.25;100101.64;113259;1199;22660;-57
2021/10/31 03:36:53;;;;;;;16.80;6.80;;;;;;;8.44;63.37;100102.80;113106;1193;22582;-58
2021/10/31 03:39:21;;;;;;;22.40;8.20;;;;;;;8.47;63.38;100105.98;113287;1199;22520;-58
2021/10/31 03:41:49;;;;;;;18.10;7.20;;;;;;;8.51;63.37;100107.94;113316;1199;25121;-58
2021/10/31 03:44:21;;;;;;;19.90;8.20;;;;;;;8.55;63.23;100116.89;113301;1195;22551;-59
2021/10/31 03:46:50;;;;;;;19.50;7.60;;;;;;;8.57;63.25;100119.58;113290;1199;25067;-60
2021/10/31 03:49:19;;;;;;;20.00;7.50;;;;;;;8.59;63.22;100122.44;113352;1199;26187;-58
2021/10/31 03:51:47;;;;;;;17.10;7.50;;;;;;;8.60;63.28;100118.09;113349;1199;22548;-57
2021/10/31 03:54:15;;;;;;;21.50;7.50;;;;;;;8.61;63.45;100121.70;113248;1198;22438;-59
2021/10/31 03:56:43;;;;;;;19.60;7.90;;;;;;;8.61;63.36;100119.88;113275;1198;24341;-59
2021/10/31 03:59:12;;;;;;;21.20;8.30;;;;;;;8.62;63.38;100128.75;113212;1199;22432;-60
2021/10/31 04:01:41;;;;;;;25.70;8.70;;;;;;;8.63;63.36;100128.70;113290;1197;22559;-57
2021/10/31 04:04:09;;;;;;;21.80;8.10;;;;;;;8.63;63.44;100124.63;113211;1199;25376;-58
2021/10/31 04:06:37;;;;;;;19.60;7.90;;;;;;;8.64;63.47;100126.67;113250;1199;25128;-59
2021/10/31 04:09:05;;;;;;;20.90;7.80;;;;;;;8.64;63.55;100131.25;113162;1199;22419;-59
2021/10/31 04:11:33;;;;;;;18.80;6.90;;;;;;;8.64;63.46;100132.55;113249;1199;24085;-58
2021/10/31 04:14:01;;;;;;;18.40;7.20;;;;;;;8.64;63.50;100132.95;113219;1199;25198;-58
2021/10/31 04:16:30;;;;;;;25.20;8.60;;;;;;;8.64;63.60;100132.08;113269;1199;23812;-57
2021/10/31 04:18:58;;;;;;;22.50;8.10;;;;;;;8.63;63.55;100130.04;113226;1193;24267;-59
2021/10/31 04:21:27;;;;;;;23.20;9.10;;;;;;;8.63;63.61;100132.83;112816;1194;22558;-60
2021/10/31 04:23:55;;;;;;;23.10;9.30;;;;;;;8.63;63.72;100132.21;113107;1199;22998;-59
2021/10/31 04:26:24;;;;;;;20.20;8.40;;;;;;;8.61;63.57;100138.14;113213;1192;26348;-58
2021/10/31 04:28:52;;;;;;;26.30;9.40;;;;;;;8.60;63.66;100135.59;112980;1199;22931;-58
2021/10/31 04:31:20;;;;;;;23.90;9.20;;;;;;;8.59;63.87;100136.58;113196;1199;22418;-58
2021/10/31 04:33:49;;;;;;;23.40;9.40;;;;;;;8.58;63.78;100140.38;113263;1199;22425;-59
2021/10/31 04:36:18;;;;;;;23.90;10.60;;;;;;;8.56;63.87;100138.56;113427;1199;24095;-59
2021/10/31 04:38:52;;;;;;;27.30;9.60;;;;;;;8.54;63.83;100136.56;113300;1200;24157;-58
2021/10/31 04:41:20;;;;;;;25.50;10.40;;;;;;;8.53;63.93;100131.30;113261;1184;24141;-59
2021/10/31 04:43:47;;;;;;;25.50;10.40;;;;;;;8.51;63.87;100124.95;113122;1194;23242;-60
2021/10/31 04:46:16;;;;;;;25.10;10.80;;;;;;;8.50;64.08;100121.91;113232;1199;23826;-60
2021/10/31 04:48:45;;;;;;;24.20;9.80;;;;;;;8.47;64.01;100115.53;113325;1199;22703;-60
2021/10/31 04:51:14;;;;;;;26.30;9.80;;;;;;;8.44;64.17;100113.98;113219;1199;22569;-58
2021/10/31 04:53:43;;;;;;;25.60;9.50;;;;;;;8.41;64.19;100121.15;113295;1199;22434;-57
2021/10/31 04:56:11;;;;;;;21.60;9.30;;;;;;;8.38;64.38;100130.26;113238;1199;22412;-59
2021/10/31 04:58:40;;;;;;;25.00;9.80;;;;;;;8.35;64.44;100135.34;113240;1199;25064;-58
2021/10/31 05:01:09;;;;;;;28.00;11.20;;;;;;;8.31;64.47;100138.74;113300;1199;25051;-58
2021/10/31 05:03:37;;;;;;;23.90;10.00;;;;;;;8.30;64.51;100130.00;113379;1199;25081;-58
2021/10/31 05:06:05;;;;;;;23.30;8.70;;;;;;;8.28;64.65;100122.52;113373;1199;22434;-59
2021/10/31 05:08:33;;;;;;;24.10;9.30;;;;;;;8.26;64.70;100119.02;113352;1199;22442;-58
2021/10/31 05:11:01;;;;;;;20.70;8.20;;;;;;;8.23;64.94;100118.17;113689;1193;22566;-58
2021/10/31 05:13:29;;;;;;;21.50;8.90;;;;;;;8.19;64.99;100131.81;113490;1199;25127;-58
2021/10/31 05:15:58;;;;;;;25.80;8.30;;;;;;;8.18;65.04;100131.84;113365;1199;25065;-58
2021/10/31 05:18:26;;;;;;;20.80;8.40;;;;;;;8.19;64.93;100128.47;113288;1199;22597;-59
2021/10/31 05:20:54;;;;;;;21.40;8.60;;;;;;;8.20;65.02;100128.90;113297;1184;25150;-58
2021/10/31 05:23:22;;;;;;;23.60;9.40;;;;;;;8.20;65.08;100131.98;113152;1199;22445;-58
2021/10/31 05:25:50;;;;;;;22.50;9.00;;;;;;;8.19;65.10;100136.21;113327;1199;24173;-60
2021/10/31 05:28:20;;;;;;;27.10;10.00;;;;;;;8.19;65.15;100136.72;113458;1198;24094;-58
2021/10/31 05:30:48;;;;;;;21.80;8.60;;;;;;;8.20;65.13;100136.98;113318;1193;25247;-58
2021/10/31 05:33:18;;;;;;;18.50;7.60;;;;;;;8.21;65.15;100135.67;113278;1199;25095;-58
2021/10/31 05:35:47;;;;;;;22.90;8.80;;;;;;;8.22;65.31;100134.45;113350;1200;22440;-58
2021/10/31 05:38:18;;;;;;;22.10;9.30;;;;;;;8.22;65.32;100134.67;113321;1193;22424;-60
2021/10/31 05:40:47;;;;;;;22.40;8.20;;;;;;;8.24;65.25;100137.48;113290;1199;22438;-58
2021/10/31 05:43:16;;;;;;;21.70;9.00;;;;;;;8.25;65.29;100137.44;113275;1199;22457;-59
2021/10/31 05:45:45;;;;;;;22.70;8.40;;;;;;;8.27;65.32;100142.86;113295;1199;22420;-58
2021/10/31 05:48:14;;;;;;;21.00;7.70;;;;;;;8.28;65.46;100150.34;113129;1193;25038;-60
2021/10/31 05:50:42;;;;;;;20.60;8.90;;;;;;;8.30;65.43;100152.00;113271;1199;27566;-59
2021/10/31 05:53:10;;;;;;;20.30;7.60;;;;;;;8.31;65.47;100154.17;113252;1199;25108;-58
2021/10/31 05:55:38;;;;;;;23.10;8.50;;;;;;;8.32;65.52;100150.95;113307;1199;22455;-59
2021/10/31 05:58:07;;;;;;;27.70;9.10;;;;;;;8.32;65.54;100151.97;113106;1199;23482;-58
2021/10/31 06:00:35;;;;;;;26.10;9.90;;;;;;;8.33;65.58;100153.21;113114;1200;22413;-57
2021/10/31 06:03:03;;;;;;;23.30;9.70;;;;;;;8.34;65.61;100156.36;113279;1197;23017;-61
2021/10/31 06:05:32;;;;;;;24.50;9.50;;;;;;;8.35;65.53;100161.48;113266;1192;25131;-62
2021/10/31 06:08:01;;;;;;;21.30;8.40;;;;;;;8.35;65.61;100160.69;113291;1192;24213;-57
2021/10/31 06:10:30;;;;;;;24.30;9.30;;;;;;;8.36;65.58;100163.75;113310;1193;22424;-59
2021/10/31 06:12:58;;;;;;;20.20;7.70;;;;;;;8.37;65.51;100167.26;113243;1199;22468;-59
2021/10/31 06:15:26;;;;;;;22.30;9.70;;;;;;;8.39;65.56;100172.97;113427;1193;24053;-61
2021/10/31 06:17:55;;;;;;;26.90;10.80;;;;;;;8.39;65.76;100171.14;113289;1193;22683;-59
2021/10/31 06:20:23;;;;;;;29.70;14.40;;;;;;;8.40;65.91;100176.73;112944;1199;25143;-60
2021/10/31 06:22:51;;;;;;;25.30;13.00;;;;;;;8.40;65.82;100180.70;113008;1199;22439;-59
2021/10/31 06:25:20;;;;;;;31.00;14.30;;;;;;;8.41;65.75;100182.90;112952;1193;24216;-59
2021/10/31 06:27:48;;;;;;;25.80;12.80;;;;;;;8.43;65.78;100180.15;113006;1193;25243;-59
2021/10/31 06:30:16;;;;;;;33.50;17.30;;;;;;;8.44;65.90;100183.73;113010;1192;24090;-59
2021/10/31 06:32:45;;;;;;;43.40;22.20;;;;;;;8.44;65.97;100190.45;113085;1199;22474;-59
2021/10/31 06:35:13;;;;;;;42.90;20.60;;;;;;;8.45;65.89;100193.45;113021;1199;23831;-58
2021/10/31 06:37:41;;;;;;;40.40;19.30;;;;;;;8.46;65.89;100192.84;113003;1193;24144;-59
2021/10/31 06:40:12;;;;;;;34.80;15.90;;;;;;;8.48;66.00;100195.87;113010;1192;25338;-60
2021/10/31 06:42:39;;;;;;;;;;;;;;;8.48;66.01;100190.77;113036;1199;25100;-58
2021/10/31 06:45:09;;;;;;;27.00;12.50;;;;;;;8.49;66.14;100190.64;112978;1193;25727;-59
2021/10/31 06:47:37;;;;;;;25.90;11.40;;;;;;;8.51;66.04;100196.98;113032;1199;22457;-59
2021/10/31 06:50:08;;;;;;;24.00;10.20;;;;;;;8.54;66.15;100198.20;112981;1193;25287;-59
2021/10/31 06:52:37;;;;;;;26.80;11.30;;;;;;;8.57;66.32;100198.23;112987;1193;22514;-59
2021/10/31 06:55:10;;;;;;;27.90;12.20;;;;;;;8.60;66.38;100197.61;113003;1193;22548;-60
2021/10/31 06:57:40;;;;;;;24.50;11.60;;;;;;;8.63;66.38;100197.95;113005;1199;26452;-60
2021/10/31 07:00:13;;;;;;;24.70;11.40;;;;;;;8.67;66.45;100195.85;113048;1193;22496;-60
2021/10/31 07:02:41;;;;;;;23.20;10.50;;;;;;;8.72;66.53;100194.83;112978;1199;22446;-60
2021/10/31 07:05:10;;;;;;;23.80;10.90;;;;;;;8.77;66.63;100195.86;113084;1199;22562;-60
2021/10/31 07:07:39;;;;;;;28.30;11.80;;;;;;;8.82;66.58;100200.37;113104;1198;22550;-59
2021/10/31 07:10:09;;;;;;;27.30;13.20;;;;;;;8.90;66.52;100198.44;112937;1193;22437;-60
2021/10/31 07:12:38;;;;;;;29.40;13.70;;;;;;;8.97;66.50;100197.79;113171;1177;24034;-59
2021/10/31 07:15:08;;;;;;;25.70;10.20;;;;;;;9.05;66.64;100200.86;112914;1192;22806;-61
2021/10/31 07:17:38;;;;;;;24.00;9.20;;;;;;;9.12;66.47;100196.19;112972;1199;22450;-59
2021/10/31 07:20:10;;;;;;;35.20;13.90;;;;;;;9.20;66.41;100196.84;112814;1199;25047;-59
2021/10/31 07:22:38;;;;;;;42.40;19.70;;;;;;;9.26;66.37;100192.73;113189;1199;22445;-60
2021/10/31 07:25:11;;;;;;;60.00;30.50;;;;;;;9.32;66.33;100193.73;113021;1193;22422;-60
2021/10/31 07:27:40;;;;;;;35.70;16.40;;;;;;;9.39;66.38;100196.97;113033;1199;22438;-58
2021/10/31 07:30:11;;;;;;;25.00;12.10;;;;;;;9.45;66.34;100194.18;112873;1199;22463;-59
2021/10/31 07:32:40;;;;;;;33.90;18.70;;;;;;;9.53;66.41;100193.98;113123;1199;25038;-59
2021/10/31 07:35:10;;;;;;;37.20;18.80;;;;;;;9.59;66.25;100196.05;112839;1193;24065;-58
2021/10/31 07:37:39;;;;;;;36.60;18.80;;;;;;;9.65;66.27;100191.63;112900;1199;22429;-59
2021/10/31 07:40:09;;;;;;;38.20;18.10;;;;;;;9.72;66.39;100193.75;112797;1199;22580;-57
2021/10/31 07:42:37;;;;;;;41.80;20.20;;;;;;;9.79;66.27;100184.48;114831;1192;24838;-58
2021/10/31 07:45:07;;;;;;;34.80;17.00;;;;;;;9.87;66.22;100186.00;112876;1192;22429;-58
2021/10/31 07:47:36;;;;;;;35.80;17.30;;;;;;;9.93;66.22;100179.36;113124;1198;22461;-60
2021/10/31 07:50:06;;;;;;;39.00;17.70;;;;;;;9.98;66.26;100177.05;112841;1199;22434;-59
2021/10/31 07:52:36;;;;;;;29.20;13.30;;;;;;;10.03;66.15;100173.05;113083;1198;22424;-60
2021/10/31 07:55:11;;;;;;;26.70;12.40;;;;;;;10.09;66.15;100173.19;112944;1193;22432;-59
2021/10/31 07:57:39;;;;;;;27.00;10.60;;;;;;;10.16;66.10;100176.79;113362;1198;24212;-62
2021/10/31 08:00:10;;;;;;;27.30;12.20;;;;;;;10.22;66.11;100173.88;113074;1199;25023;-63
2021/10/31 08:02:38;;;;;;;31.50;15.20;;;;;;;10.28;65.91;100172.37;113460;1197;24080;-62
2021/10/31 08:05:09;;;;;;;27.30;14.50;;;;;;;10.34;65.99;100171.57;113202;1199;22432;-61
2021/10/31 08:07:36;;;;;;;;;;;;;;;10.42;65.95;100173.64;113500;1193;22437;-62
2021/10/31 08:10:07;;;;;;;22.30;10.90;;;;;;;10.49;65.98;100172.84;113248;1199;22511;-60
2021/10/31 08:12:36;;;;;;;31.40;12.50;;;;;;;10.57;65.95;100170.26;113250;1199;22529;-62
2021/10/31 08:15:07;;;;;;;22.50;9.90;;;;;;;10.66;65.79;100174.27;113135;1199;25148;-62
2021/10/31 08:17:36;;;;;;;20.60;9.30;;;;;;;10.74;65.75;100172.84;113618;1200;22480;-62
2021/10/31 08:20:06;;;;;;;22.00;9.70;;;;;;;10.83;65.79;100165.27;113042;1198;22917;-62
2021/10/31 08:22:36;;;;;;;23.30;9.50;;;;;;;10.92;65.98;100162.36;113317;1192;58559;-62
2021/10/31 08:25:05;;;;;;;23.70;11.10;;;;;;;11.03;65.63;100162.15;113147;1193;24095;-59
2021/10/31 08:27:34;;;;;;;19.40;9.30;;;;;;;11.11;65.52;100163.09;113149;1198;22421;-61
2021/10/31 08:30:04;;;;;;;28.90;10.80;;;;;;;11.22;65.53;100161.57;113244;1198;22547;-55
2021/10/31 08:32:39;;;;;;;27.60;13.60;;;;;;;11.30;65.28;100155.80;113380;1198;25010;-60
2021/10/31 08:35:08;;;;;;;28.30;11.40;;;;;;;11.42;65.34;100155.00;113308;1198;25111;-60
2021/10/31 08:37:37;;;;;;;25.90;9.10;;;;;;;11.55;64.94;100153.40;113351;1193;22429;-61
2021/10/31 08:40:08;;;;;;;19.90;8.70;;;;;;;11.68;64.91;100154.36;113490;1198;22508;-61
2021/10/31 08:42:38;;;;;;;24.70;9.50;;;;;;;11.79;64.61;100150.75;113475;1193;26402;-62
2021/10/31 08:45:12;;;;;;;26.80;11.10;;;;;;;11.89;64.55;100150.46;113505;1191;22435;-61
2021/10/31 08:47:41;;;;;;;24.00;9.00;;;;;;;11.98;64.53;100145.70;113335;1198;22750;-68
2021/10/31 08:50:10;;;;;;;21.40;9.00;;;;;;;12.09;64.29;100138.05;113306;1193;24126;-62
2021/10/31 08:52:39;;;;;;;20.20;9.30;;;;;;;12.20;64.13;100132.86;113330;1193;22553;-63
2021/10/31 08:55:09;;;;;;;24.50;8.70;;;;;;;12.30;63.86;100133.73;113274;1190;22432;-61
2021/10/31 08:57:38;;;;;;;24.00;9.70;;;;;;;12.42;63.60;100132.63;113725;1198;22434;-61
2021/10/31 09:00:09;;;;;;;20.10;8.70;;;;;;;12.50;63.63;100129.76;114153;1198;24081;-62
2021/10/31 09:02:37;;;;;;;16.80;6.60;;;;;;;12.61;63.62;100127.15;113543;1198;22422;-59
2021/10/31 09:05:07;;;;;;;17.70;8.30;;;;;;;12.72;63.37;100127.36;112158;1193;22446;-60
2021/10/31 09:07:40;;;;;;;27.80;8.60;;;;;;;12.83;63.21;100125.19;113471;1198;26398;-61
2021/10/31 09:10:10;;;;;;;19.40;8.10;;;;;;;12.93;63.09;100124.33;113107;1198;25193;-62
2021/10/31 09:12:38;;;;;;;18.90;6.80;;;;;;;13.02;63.03;100120.05;113434;1193;23244;-64
2021/10/31 09:15:08;;;;;;;17.70;7.50;;;;;;;13.12;62.98;100120.29;112871;1198;25091;-64
2021/10/31 09:17:37;;;;;;;19.80;8.90;;;;;;;13.20;62.67;100119.02;113322;1198;22434;-61
2021/10/31 09:20:07;;;;;;;19.60;8.30;;;;;;;13.31;62.48;100118.55;113099;1192;22426;-60
2021/10/31 09:22:35;;;;;;;16.70;6.70;;;;;;;13.44;62.35;100114.64;113297;1198;52340;-62
2021/10/31 09:25:06;;;;;;;20.40;7.20;;;;;;;13.55;61.86;100109.33;113162;1198;24703;-61
2021/10/31 09:27:36;;;;;;;18.90;7.80;;;;;;;13.66;61.97;100107.23;113271;1198;24143;-60
2021/10/31 09:30:07;;;;;;;18.50;7.20;;;;;;;13.76;61.55;100108.96;113107;1192;24963;-66
2021/10/31 09:32:50;;;;;;;16.60;6.30;;;;;;;13.86;61.18;100107.95;113457;1193;22430;-59
2021/10/31 09:35:22;;;;;;;17.60;7.30;;;;;;;13.98;61.05;100105.78;113470;1192;22423;-69
2021/10/31 09:37:53;;;;;;;15.90;6.30;;;;;;;14.10;60.83;100108.12;113190;1198;25100;-61
2021/10/31 09:40:23;;;;;;;14.50;6.20;;;;;;;14.20;60.48;100108.48;112929;1198;24209;-65
2021/10/31 09:42:53;;;;;;;16.20;7.10;;;;;;;14.29;60.30;100107.86;115662;1194;24910;-67
2021/10/31 09:45:23;;;;;;;16.90;6.30;;;;;;;14.41;60.00;100106.73;113203;1192;22443;-60
2021/10/31 09:47:55;;;;;;;18.00;6.70;;;;;;;14.49;59.83;100105.45;113139;1193;22579;-61
2021/10/31 09:50:28;;;;;;;19.80;6.80;;;;;;;14.62;59.70;100101.07;113060;1198;22777;-62
2021/10/31 09:52:57;;;;;;;19.00;6.70;;;;;;;14.76;59.25;100096.98;113076;1193;22444;-62
2021/10/31 09:55:26;;;;;;;16.80;6.30;;;;;;;14.87;58.90;100096.52;112923;1198;22432;-62
2021/10/31 09:57:55;;;;;;;19.10;6.60;;;;;;;15.02;58.78;100095.67;112989;1198;22427;-62
2021/10/31 10:00:35;;;;;;;17.00;6.90;;;;;;;15.14;58.61;100091.17;112927;1198;25689;-62
2021/10/31 10:03:23;;;;;;;16.60;7.10;;;;;;;15.23;58.18;100088.70;113001;1198;24110;-63
2021/10/31 10:06:13;;;;;;;16.60;6.60;;;;;;;15.31;58.07;100082.79;113221;1198;25004;-60
2021/10/31 10:09:02;;;;;;;16.80;6.80;;;;;;;15.38;57.71;100083.44;113271;1193;22390;-61
2021/10/31 10:11:33;;;;;;;16.70;6.50;;;;;;;15.45;57.59;100084.89;113514;1191;25043;-60
2021/10/31 10:14:17;;;;;;;16.40;5.90;;;;;;;15.50;57.35;100085.17;113206;1198;25136;-59
2021/10/31 10:16:47;;;;;;;15.90;6.80;;;;;;;15.52;57.20;100079.89;112985;1198;23784;-59
2021/10/31 10:19:22;;;;;;;15.50;6.30;;;;;;;15.55;56.96;100079.48;113125;1198;22444;-60
2021/10/31 10:22:00;;;;;;;14.80;5.80;;;;;;;15.60;56.70;100073.06;113270;1198;22611;-60
2021/10/31 10:24:29;;;;;;;16.60;6.30;;;;;;;15.65;56.57;100069.81;113011;1192;25547;-60
2021/10/31 10:27:01;;;;;;;16.10;6.50;;;;;;;15.67;56.41;100067.77;113185;1198;23123;-61
2021/10/31 10:29:36;;;;;;;16.70;6.60;;;;;;;15.70;56.28;100066.77;113285;1192;22754;-61
2021/10/31 10:32:07;;;;;;;16.40;6.70;;;;;;;15.74;56.13;100067.73;114912;1190;22412;-60
2021/10/31 10:34:44;;;;;;;15.30;5.80;;;;;;;15.76;56.22;100069.52;113498;1198;25042;-60
2021/10/31 10:37:15;;;;;;;16.70;6.00;;;;;;;15.79;55.96;100067.85;113182;1198;22438;-60
2021/10/31 10:39:45;;;;;;;16.40;6.30;;;;;;;15.83;55.89;100066.92;113371;1192;22482;-60
2021/10/31 10:42:21;;;;;;;15.20;7.00;;;;;;;15.86;55.53;100058.05;113019;1192;22418;-60
2021/10/31 10:44:50;;;;;;;16.10;6.80;;;;;;;15.88;55.41;100051.59;113316;1198;25162;-60
2021/10/31 10:47:21;;;;;;;14.10;5.90;;;;;;;15.89;55.15;100049.02;113435;1198;22424;-60
2021/10/31 10:49:51;;;;;;;14.50;5.90;;;;;;;15.92;55.17;100049.00;113029;1198;22433;-60
2021/10/31 10:52:23;;;;;;;14.60;5.50;;;;;;;15.96;55.04;100041.09;113381;1199;25577;-60
2021/10/31 10:54:56;;;;;;;15.60;6.60;;;;;;;16.03;54.94;100042.09;113209;1193;23806;-62
2021/10/31 10:57:31;;;;;;;15.90;6.50;;;;;;;16.08;54.62;100036.66;113390;1198;22674;-61
2021/10/31 11:00:10;;;;;;;17.30;6.60;;;;;;;16.16;54.66;100031.29;113149;1198;25084;-60
2021/10/31 11:02:58;;;;;;;13.40;5.30;;;;;;;16.24;54.66;100021.25;113601;1192;24185;-60
2021/10/31 11:05:29;;;;;;;15.10;6.40;;;;;;;16.30;54.41;100022.02;113328;1198;22556;-60
2021/10/31 11:07:59;;;;;;;15.40;6.20;;;;;;;16.34;54.28;100022.76;112876;1198;22453;-60
2021/10/31 11:10:29;;;;;;;;;;;;;;;16.37;54.22;100014.83;113042;1199;22422;-62
2021/10/31 11:12:59;;;;;;;16.50;6.50;;;;;;;16.37;54.30;100010.73;112752;1192;22424;-59
2021/10/31 11:15:31;;;;;;;16.40;6.10;;;;;;;16.37;54.11;100003.88;112974;1198;22429;-60
2021/10/31 11:18:01;;;;;;;14.40;5.90;;;;;;;16.40;53.80;100003.61;113114;1198;22433;-60
2021/10/31 11:20:34;;;;;;;19.00;7.10;;;;;;;16.43;53.79;100002.87;113530;1198;25130;-60
2021/10/31 11:23:05;;;;;;;17.40;6.60;;;;;;;16.45;53.87;99997.77;113085;1198;22429;-60
2021/10/31 11:25:37;;;;;;;15.60;6.30;;;;;;;16.47;53.69;99997.45;113063;1192;23114;-60
2021/10/31 11:28:09;;;;;;;15.90;6.70;;;;;;;16.51;53.53;99989.80;113154;1192;24135;-62
2021/10/31 11:30:38;;;;;;;16.90;6.10;;;;;;;16.58;53.51;99984.52;112854;1199;22539;-60